sensor_id;sensor_type;location;lat;lon;timestamp;P1;durP1;ratioP1;P2;durP2;ratioP2
60917;SDS011;46792;38.854;-9.384;2023-04-16T00:01:03;10.52;;;3.10;;
60917;SDS011;46792;38.854;-9.384;2023-04-16T00:03:23;11.48;;;2.95;;
60917;SDS011;46792;38.854;-9.384;2023-04-16T00:05:42;11.80;;;3.85;;
60917;SDS011;46792;38.854;-9.384;2023-04-16T00:08:01;9.45;;;2.45;;
60917;SDS011;46792;38.854;-9.384;2023-04-16T00:10:20;11.68;;;4.93;;
60917;SDS011;46792;38.854;-9.384;2023-04-16T00:12:21;25.63;;;4.07;;
60917;SDS011;46792;38.854;-9.384;2023-04-16T00:14:22;13.07;;;3.28;;
60917;SDS011;46792;38.854;-9.384;2023-04-16T00:16:23;12.07;;;4.05;;
60917;SDS011;46792;38.854;-9.384;2023-04-16T00:18:23;14.18;;;4.55;;
60917;SDS011;46792;38.854;-9.384;2023-04-16T00:20:42;21.80;;;4.47;;
60917;SDS011;46792;38.854;-9.384;2023-04-16T00:22:43;15.25;;;4.10;;
60917;SDS011;46792;38.854;-9.384;2023-04-16T00:24:44;16.52;;;4.03;;
60917;SDS011;46792;38.854;-9.384;2023-04-16T00:27:02;14.90;;;4.28;;
60917;SDS011;46792;38.854;-9.384;2023-04-16T00:29:22;17.55;;;4.60;;
60917;SDS011;46792;38.854;-9.384;2023-04-16T00:31:29;11.98;;;4.00;;
60917;SDS011;46792;38.854;-9.384;2023-04-16T00:33:31;14.82;;;4.07;;
60917;SDS011;46792;38.854;-9.384;2023-04-16T00:35:31;9.70;;;4.78;;
60917;SDS011;46792;38.854;-9.384;2023-04-16T00:37:32;16.98;;;5.30;;
60917;SDS011;46792;38.854;-9.384;2023-04-16T00:39:32;26.63;;;4.47;;
60917;SDS011;46792;38.854;-9.384;2023-04-16T00:41:33;17.48;;;4.32;;
60917;SDS011;46792;38.854;-9.384;2023-04-16T00:43:34;18.80;;;4.88;;
60917;SDS011;46792;38.854;-9.384;2023-04-16T00:45:34;13.95;;;4.53;;
60917;SDS011;46792;38.854;-9.384;2023-04-16T00:47:36;15.40;;;4.40;;
60917;SDS011;46792;38.854;-9.384;2023-04-16T00:49:37;13.93;;;4.68;;
60917;SDS011;46792;38.854;-9.384;2023-04-16T00:51:38;13.40;;;4.57;;
60917;SDS011;46792;38.854;-9.384;2023-04-16T00:53:39;9.43;;;4.38;;
60917;SDS011;46792;38.854;-9.384;2023-04-16T00:55:40;12.65;;;4.78;;
60917;SDS011;46792;38.854;-9.384;2023-04-16T00:57:40;17.70;;;4.40;;
60917;SDS011;46792;38.854;-9.384;2023-04-16T00:59:41;12.60;;;4.53;;
60917;SDS011;46792;38.854;-9.384;2023-04-16T01:02:01;15.75;;;4.90;;
60917;SDS011;46792;38.854;-9.384;2023-04-16T01:04:02;27.88;;;5.93;;
60917;SDS011;46792;38.854;-9.384;2023-04-16T01:06:21;11.65;;;4.35;;
60917;SDS011;46792;38.854;-9.384;2023-04-16T01:08:40;15.65;;;3.70;;
60917;SDS011;46792;38.854;-9.384;2023-04-16T01:10:41;11.38;;;4.15;;
60917;SDS011;46792;38.854;-9.384;2023-04-16T01:12:41;19.35;;;5.07;;
60917;SDS011;46792;38.854;-9.384;2023-04-16T01:14:42;12.02;;;4.88;;
60917;SDS011;46792;38.854;-9.384;2023-04-16T01:16:43;11.32;;;6.60;;
60917;SDS011;46792;38.854;-9.384;2023-04-16T01:18:44;22.23;;;9.18;;
60917;SDS011;46792;38.854;-9.384;2023-04-16T01:20:48;28.80;;;20.45;;
60917;SDS011;46792;38.854;-9.384;2023-04-16T01:23:08;14.35;;;7.80;;
60917;SDS011;46792;38.854;-9.384;2023-04-16T01:25:29;23.67;;;12.88;;
60917;SDS011;46792;38.854;-9.384;2023-04-16T01:27:30;21.00;;;8.50;;
60917;SDS011;46792;38.854;-9.384;2023-04-16T01:29:50;16.77;;;7.63;;
60917;SDS011;46792;38.854;-9.384;2023-04-16T01:31:56;20.15;;;6.10;;
60917;SDS011;46792;38.854;-9.384;2023-04-16T01:34:04;18.50;;;6.38;;
60917;SDS011;46792;38.854;-9.384;2023-04-16T01:36:05;16.45;;;5.40;;
60917;SDS011;46792;38.854;-9.384;2023-04-16T01:38:25;10.90;;;4.68;;
60917;SDS011;46792;38.854;-9.384;2023-04-16T01:40:44;9.18;;;4.50;;
60917;SDS011;46792;38.854;-9.384;2023-04-16T01:42:45;13.40;;;5.30;;
60917;SDS011;46792;38.854;-9.384;2023-04-16T01:44:46;14.00;;;5.05;;
60917;SDS011;46792;38.854;-9.384;2023-04-16T01:46:46;15.45;;;5.55;;
60917;SDS011;46792;38.854;-9.384;2023-04-16T01:48:48;15.13;;;5.38;;
60917;SDS011;46792;38.854;-9.384;2023-04-16T01:50:48;15.88;;;6.72;;
60917;SDS011;46792;38.854;-9.384;2023-04-16T01:52:49;19.02;;;5.43;;
60917;SDS011;46792;38.854;-9.384;2023-04-16T01:54:50;21.38;;;6.25;;
60917;SDS011;46792;38.854;-9.384;2023-04-16T01:56:50;19.70;;;5.57;;
60917;SDS011;46792;38.854;-9.384;2023-04-16T01:58:51;24.27;;;6.20;;
60917;SDS011;46792;38.854;-9.384;2023-04-16T02:05:53;13.68;;;5.60;;
60917;SDS011;46792;38.854;-9.384;2023-04-16T02:07:54;14.57;;;5.78;;
60917;SDS011;46792;38.854;-9.384;2023-04-16T02:09:54;18.42;;;6.70;;
60917;SDS011;46792;38.854;-9.384;2023-04-16T02:11:57;14.38;;;6.43;;
60917;SDS011;46792;38.854;-9.384;2023-04-16T02:13:57;13.80;;;5.97;;
60917;SDS011;46792;38.854;-9.384;2023-04-16T02:15:59;17.50;;;5.10;;
60917;SDS011;46792;38.854;-9.384;2023-04-16T02:18:25;19.92;;;5.72;;
60917;SDS011;46792;38.854;-9.384;2023-04-16T02:23:40;36.13;;;7.20;;
60917;SDS011;46792;38.854;-9.384;2023-04-16T02:26:03;25.67;;;6.45;;
60917;SDS011;46792;38.854;-9.384;2023-04-16T02:28:04;27.70;;;7.22;;
60917;SDS011;46792;38.854;-9.384;2023-04-16T02:30:10;34.20;;;7.97;;
60917;SDS011;46792;38.854;-9.384;2023-04-16T02:32:11;28.98;;;6.68;;
60917;SDS011;46792;38.854;-9.384;2023-04-16T02:34:14;41.40;;;8.05;;
60917;SDS011;46792;38.854;-9.384;2023-04-16T02:36:33;36.03;;;7.15;;
60917;SDS011;46792;38.854;-9.384;2023-04-16T02:38:34;42.58;;;8.07;;
60917;SDS011;46792;38.854;-9.384;2023-04-16T02:40:36;45.50;;;9.68;;
60917;SDS011;46792;38.854;-9.384;2023-04-16T02:42:37;40.00;;;10.85;;
60917;SDS011;46792;38.854;-9.384;2023-04-16T02:44:37;38.15;;;9.82;;
60917;SDS011;46792;38.854;-9.384;2023-04-16T02:46:38;33.72;;;9.77;;
60917;SDS011;46792;38.854;-9.384;2023-04-16T02:48:39;50.47;;;9.52;;
60917;SDS011;46792;38.854;-9.384;2023-04-16T02:50:40;46.50;;;8.15;;
60917;SDS011;46792;38.854;-9.384;2023-04-16T02:52:40;27.92;;;7.75;;
60917;SDS011;46792;38.854;-9.384;2023-04-16T02:54:41;24.98;;;7.45;;
60917;SDS011;46792;38.854;-9.384;2023-04-16T02:57:00;22.92;;;6.80;;
60917;SDS011;46792;38.854;-9.384;2023-04-16T02:59:01;33.40;;;7.47;;
60917;SDS011;46792;38.854;-9.384;2023-04-16T03:01:02;26.85;;;7.43;;
60917;SDS011;46792;38.854;-9.384;2023-04-16T03:05:47;31.45;;;7.70;;
60917;SDS011;46792;38.854;-9.384;2023-04-16T03:07:47;31.63;;;6.97;;
60917;SDS011;46792;38.854;-9.384;2023-04-16T03:10:08;23.50;;;7.75;;
60917;SDS011;46792;38.854;-9.384;2023-04-16T03:12:29;26.70;;;8.18;;
60917;SDS011;46792;38.854;-9.384;2023-04-16T03:14:49;33.47;;;7.20;;
60917;SDS011;46792;38.854;-9.384;2023-04-16T03:16:51;32.15;;;7.72;;
60917;SDS011;46792;38.854;-9.384;2023-04-16T03:19:10;28.45;;;7.60;;
60917;SDS011;46792;38.854;-9.384;2023-04-16T03:21:29;39.20;;;8.88;;
60917;SDS011;46792;38.854;-9.384;2023-04-16T03:26:08;29.88;;;9.38;;
60917;SDS011;46792;38.854;-9.384;2023-04-16T03:30:27;24.98;;;8.07;;
60917;SDS011;46792;38.854;-9.384;2023-04-16T03:32:28;24.85;;;8.13;;
60917;SDS011;46792;38.854;-9.384;2023-04-16T03:34:29;40.78;;;8.65;;
60917;SDS011;46792;38.854;-9.384;2023-04-16T03:36:30;38.92;;;8.63;;
60917;SDS011;46792;38.854;-9.384;2023-04-16T03:38:31;268.52;;;10.57;;
60917;SDS011;46792;38.854;-9.384;2023-04-16T03:40:33;239.57;;;11.55;;
60917;SDS011;46792;38.854;-9.384;2023-04-16T03:42:34;216.30;;;11.88;;
60917;SDS011;46792;38.854;-9.384;2023-04-16T03:44:36;155.02;;;10.70;;
60917;SDS011;46792;38.854;-9.384;2023-04-16T03:48:56;321.48;;;11.57;;
60917;SDS011;46792;38.854;-9.384;2023-04-16T03:50:57;276.67;;;11.60;;
60917;SDS011;46792;38.854;-9.384;2023-04-16T03:52:58;178.40;;;11.63;;
60917;SDS011;46792;38.854;-9.384;2023-04-16T03:54:58;337.15;;;13.30;;
60917;SDS011;46792;38.854;-9.384;2023-04-16T03:57:01;198.82;;;13.85;;
60917;SDS011;46792;38.854;-9.384;2023-04-16T03:59:02;242.63;;;12.02;;
60917;SDS011;46792;38.854;-9.384;2023-04-16T04:01:02;139.32;;;11.90;;
60917;SDS011;46792;38.854;-9.384;2023-04-16T04:03:03;122.60;;;9.27;;
60917;SDS011;46792;38.854;-9.384;2023-04-16T04:05:05;143.32;;;9.43;;
60917;SDS011;46792;38.854;-9.384;2023-04-16T04:07:24;158.45;;;9.30;;
60917;SDS011;46792;38.854;-9.384;2023-04-16T04:09:26;133.25;;;9.70;;
60917;SDS011;46792;38.854;-9.384;2023-04-16T04:11:26;123.28;;;8.52;;
60917;SDS011;46792;38.854;-9.384;2023-04-16T04:13:28;143.38;;;8.35;;
60917;SDS011;46792;38.854;-9.384;2023-04-16T04:15:48;161.57;;;9.55;;
60917;SDS011;46792;38.854;-9.384;2023-04-16T04:17:48;156.93;;;10.55;;
60917;SDS011;46792;38.854;-9.384;2023-04-16T04:19:49;56.22;;;7.35;;
60917;SDS011;46792;38.854;-9.384;2023-04-16T04:21:52;51.63;;;7.38;;
60917;SDS011;46792;38.854;-9.384;2023-04-16T04:23:52;82.68;;;6.97;;
60917;SDS011;46792;38.854;-9.384;2023-04-16T04:25:53;212.40;;;9.18;;
60917;SDS011;46792;38.854;-9.384;2023-04-16T04:28:12;102.68;;;8.13;;
60917;SDS011;46792;38.854;-9.384;2023-04-16T04:30:13;35.33;;;6.13;;
60917;SDS011;46792;38.854;-9.384;2023-04-16T04:32:17;81.70;;;6.65;;
60917;SDS011;46792;38.854;-9.384;2023-04-16T04:34:21;65.57;;;6.55;;
60917;SDS011;46792;38.854;-9.384;2023-04-16T04:36:22;33.10;;;5.85;;
60917;SDS011;46792;38.854;-9.384;2023-04-16T04:38:23;24.60;;;6.30;;
60917;SDS011;46792;38.854;-9.384;2023-04-16T04:40:43;13.27;;;6.38;;
60917;SDS011;46792;38.854;-9.384;2023-04-16T04:42:43;11.45;;;6.22;;
60917;SDS011;46792;38.854;-9.384;2023-04-16T04:44:44;8.10;;;6.30;;
60917;SDS011;46792;38.854;-9.384;2023-04-16T04:46:45;7.95;;;6.90;;
60917;SDS011;46792;38.854;-9.384;2023-04-16T04:48:46;7.90;;;6.45;;
60917;SDS011;46792;38.854;-9.384;2023-04-16T04:50:46;9.48;;;6.32;;
60917;SDS011;46792;38.854;-9.384;2023-04-16T04:52:47;8.98;;;6.78;;
60917;SDS011;46792;38.854;-9.384;2023-04-16T04:54:48;8.93;;;6.85;;
60917;SDS011;46792;38.854;-9.384;2023-04-16T04:56:48;9.65;;;7.72;;
60917;SDS011;46792;38.854;-9.384;2023-04-16T04:58:53;10.27;;;7.28;;
60917;SDS011;46792;38.854;-9.384;2023-04-16T05:00:54;7.88;;;6.97;;
60917;SDS011;46792;38.854;-9.384;2023-04-16T05:03:17;11.60;;;7.50;;
60917;SDS011;46792;38.854;-9.384;2023-04-16T05:05:40;8.85;;;7.07;;
60917;SDS011;46792;38.854;-9.384;2023-04-16T05:07:40;10.80;;;7.18;;
60917;SDS011;46792;38.854;-9.384;2023-04-16T05:09:41;9.20;;;7.13;;
60917;SDS011;46792;38.854;-9.384;2023-04-16T05:12:00;9.00;;;7.85;;
60917;SDS011;46792;38.854;-9.384;2023-04-16T05:14:21;7.88;;;6.97;;
60917;SDS011;46792;38.854;-9.384;2023-04-16T05:16:22;8.93;;;7.25;;
60917;SDS011;46792;38.854;-9.384;2023-04-16T05:18:22;14.15;;;7.32;;
60917;SDS011;46792;38.854;-9.384;2023-04-16T05:20:26;10.80;;;7.68;;
60917;SDS011;46792;38.854;-9.384;2023-04-16T05:22:26;12.65;;;8.32;;
60917;SDS011;46792;38.854;-9.384;2023-04-16T05:24:27;10.55;;;8.20;;
60917;SDS011;46792;38.854;-9.384;2023-04-16T05:26:28;8.52;;;7.30;;
60917;SDS011;46792;38.854;-9.384;2023-04-16T05:28:29;11.90;;;7.05;;
60917;SDS011;46792;38.854;-9.384;2023-04-16T05:30:45;15.48;;;7.82;;
60917;SDS011;46792;38.854;-9.384;2023-04-16T05:33:04;11.07;;;6.97;;
60917;SDS011;46792;38.854;-9.384;2023-04-16T05:35:05;10.93;;;6.20;;
60917;SDS011;46792;38.854;-9.384;2023-04-16T05:37:06;10.55;;;6.28;;
60917;SDS011;46792;38.854;-9.384;2023-04-16T05:39:06;11.75;;;6.78;;
60917;SDS011;46792;38.854;-9.384;2023-04-16T05:41:07;14.90;;;6.35;;
60917;SDS011;46792;38.854;-9.384;2023-04-16T05:43:26;9.65;;;6.25;;
60917;SDS011;46792;38.854;-9.384;2023-04-16T05:45:27;12.73;;;5.78;;
60917;SDS011;46792;38.854;-9.384;2023-04-16T05:47:27;12.10;;;6.20;;
60917;SDS011;46792;38.854;-9.384;2023-04-16T05:49:28;7.97;;;5.15;;
60917;SDS011;46792;38.854;-9.384;2023-04-16T05:51:29;7.80;;;5.28;;
60917;SDS011;46792;38.854;-9.384;2023-04-16T05:53:29;8.07;;;4.40;;
60917;SDS011;46792;38.854;-9.384;2023-04-16T05:55:51;11.65;;;5.15;;
60917;SDS011;46792;38.854;-9.384;2023-04-16T05:57:52;9.60;;;4.45;;
60917;SDS011;46792;38.854;-9.384;2023-04-16T05:59:52;6.20;;;3.35;;
60917;SDS011;46792;38.854;-9.384;2023-04-16T06:01:53;6.35;;;4.13;;
60917;SDS011;46792;38.854;-9.384;2023-04-16T06:03:53;9.38;;;4.10;;
60917;SDS011;46792;38.854;-9.384;2023-04-16T06:05:54;6.05;;;3.60;;
60917;SDS011;46792;38.854;-9.384;2023-04-16T06:07:55;4.72;;;3.30;;
60917;SDS011;46792;38.854;-9.384;2023-04-16T06:10:14;7.78;;;3.33;;
60917;SDS011;46792;38.854;-9.384;2023-04-16T06:12:15;9.00;;;3.03;;
60917;SDS011;46792;38.854;-9.384;2023-04-16T06:14:34;3.72;;;2.90;;
60917;SDS011;46792;38.854;-9.384;2023-04-16T06:16:34;10.35;;;3.53;;
60917;SDS011;46792;38.854;-9.384;2023-04-16T06:18:35;13.65;;;3.53;;
60917;SDS011;46792;38.854;-9.384;2023-04-16T06:20:36;5.85;;;2.92;;
60917;SDS011;46792;38.854;-9.384;2023-04-16T06:22:36;4.90;;;2.67;;
60917;SDS011;46792;38.854;-9.384;2023-04-16T06:24:56;8.70;;;3.35;;
60917;SDS011;46792;38.854;-9.384;2023-04-16T06:27:15;3.90;;;2.90;;
60917;SDS011;46792;38.854;-9.384;2023-04-16T06:29:34;4.40;;;2.42;;
60917;SDS011;46792;38.854;-9.384;2023-04-16T06:31:34;5.30;;;2.40;;
60917;SDS011;46792;38.854;-9.384;2023-04-16T06:33:35;4.65;;;3.13;;
60917;SDS011;46792;38.854;-9.384;2023-04-16T06:35:35;4.13;;;2.58;;
60917;SDS011;46792;38.854;-9.384;2023-04-16T06:37:36;2.67;;;2.22;;
60917;SDS011;46792;38.854;-9.384;2023-04-16T06:39:37;3.35;;;2.05;;
60917;SDS011;46792;38.854;-9.384;2023-04-16T06:41:56;7.43;;;2.33;;
60917;SDS011;46792;38.854;-9.384;2023-04-16T06:44:15;3.35;;;2.53;;
60917;SDS011;46792;38.854;-9.384;2023-04-16T06:46:16;2.45;;;2.22;;
60917;SDS011;46792;38.854;-9.384;2023-04-16T06:48:16;2.90;;;2.55;;
60917;SDS011;46792;38.854;-9.384;2023-04-16T06:50:35;2.33;;;2.05;;
60917;SDS011;46792;38.854;-9.384;2023-04-16T06:52:36;2.30;;;2.10;;
60917;SDS011;46792;38.854;-9.384;2023-04-16T06:54:37;4.07;;;2.42;;
60917;SDS011;46792;38.854;-9.384;2023-04-16T06:56:39;7.55;;;2.65;;
60917;SDS011;46792;38.854;-9.384;2023-04-16T06:58:39;3.97;;;2.10;;
60917;SDS011;46792;38.854;-9.384;2023-04-16T07:00:40;3.95;;;2.50;;
60917;SDS011;46792;38.854;-9.384;2023-04-16T07:02:59;5.75;;;2.40;;
60917;SDS011;46792;38.854;-9.384;2023-04-16T07:05:00;3.80;;;1.88;;
60917;SDS011;46792;38.854;-9.384;2023-04-16T07:07:01;5.63;;;3.13;;
60917;SDS011;46792;38.854;-9.384;2023-04-16T07:09:01;3.03;;;2.10;;
60917;SDS011;46792;38.854;-9.384;2023-04-16T07:11:20;4.13;;;2.42;;
60917;SDS011;46792;38.854;-9.384;2023-04-16T07:13:21;5.68;;;2.38;;
60917;SDS011;46792;38.854;-9.384;2023-04-16T07:15:40;4.07;;;2.25;;
60917;SDS011;46792;38.854;-9.384;2023-04-16T07:17:41;3.67;;;1.98;;
60917;SDS011;46792;38.854;-9.384;2023-04-16T07:19:59;4.00;;;1.92;;
60917;SDS011;46792;38.854;-9.384;2023-04-16T07:22:00;7.38;;;2.05;;
60917;SDS011;46792;38.854;-9.384;2023-04-16T07:24:01;3.17;;;2.17;;
60917;SDS011;46792;38.854;-9.384;2023-04-16T07:26:02;2.88;;;1.80;;
60917;SDS011;46792;38.854;-9.384;2023-04-16T07:28:03;9.27;;;2.63;;
60917;SDS011;46792;38.854;-9.384;2023-04-16T07:30:03;4.18;;;1.90;;
60917;SDS011;46792;38.854;-9.384;2023-04-16T07:32:04;3.22;;;2.30;;
60917;SDS011;46792;38.854;-9.384;2023-04-16T07:34:24;3.63;;;2.00;;
60917;SDS011;46792;38.854;-9.384;2023-04-16T07:36:25;1.95;;;1.77;;
60917;SDS011;46792;38.854;-9.384;2023-04-16T07:38:45;4.65;;;1.95;;
60917;SDS011;46792;38.854;-9.384;2023-04-16T07:40:46;3.17;;;1.73;;
60917;SDS011;46792;38.854;-9.384;2023-04-16T07:42:47;2.85;;;1.70;;
60917;SDS011;46792;38.854;-9.384;2023-04-16T07:44:47;5.97;;;1.70;;
60917;SDS011;46792;38.854;-9.384;2023-04-16T07:46:48;2.28;;;1.67;;
60917;SDS011;46792;38.854;-9.384;2023-04-16T07:48:48;4.38;;;1.80;;
60917;SDS011;46792;38.854;-9.384;2023-04-16T07:50:49;2.35;;;1.67;;
60917;SDS011;46792;38.854;-9.384;2023-04-16T07:52:50;4.47;;;2.00;;
60917;SDS011;46792;38.854;-9.384;2023-04-16T07:54:50;5.05;;;2.72;;
60917;SDS011;46792;38.854;-9.384;2023-04-16T07:56:51;7.57;;;2.05;;
60917;SDS011;46792;38.854;-9.384;2023-04-16T07:58:52;1.92;;;1.60;;
60917;SDS011;46792;38.854;-9.384;2023-04-16T08:00:52;3.17;;;1.58;;
60917;SDS011;46792;38.854;-9.384;2023-04-16T08:02:53;3.85;;;1.83;;
60917;SDS011;46792;38.854;-9.384;2023-04-16T08:04:53;4.20;;;1.77;;
60917;SDS011;46792;38.854;-9.384;2023-04-16T08:06:54;4.40;;;2.00;;
60917;SDS011;46792;38.854;-9.384;2023-04-16T08:08:55;2.83;;;1.50;;
60917;SDS011;46792;38.854;-9.384;2023-04-16T08:10:56;3.53;;;1.65;;
60917;SDS011;46792;38.854;-9.384;2023-04-16T08:12:58;4.47;;;1.80;;
60917;SDS011;46792;38.854;-9.384;2023-04-16T08:15:00;4.63;;;1.70;;
60917;SDS011;46792;38.854;-9.384;2023-04-16T08:17:00;4.82;;;1.80;;
60917;SDS011;46792;38.854;-9.384;2023-04-16T08:19:01;3.33;;;2.00;;
60917;SDS011;46792;38.854;-9.384;2023-04-16T08:21:02;3.33;;;1.65;;
60917;SDS011;46792;38.854;-9.384;2023-04-16T08:23:03;4.90;;;1.77;;
60917;SDS011;46792;38.854;-9.384;2023-04-16T08:25:04;2.25;;;1.60;;
60917;SDS011;46792;38.854;-9.384;2023-04-16T08:27:05;6.90;;;2.00;;
60917;SDS011;46792;38.854;-9.384;2023-04-16T08:29:06;4.22;;;1.60;;
60917;SDS011;46792;38.854;-9.384;2023-04-16T08:31:06;8.02;;;1.63;;
60917;SDS011;46792;38.854;-9.384;2023-04-16T08:33:07;3.20;;;1.60;;
60917;SDS011;46792;38.854;-9.384;2023-04-16T08:35:08;2.95;;;1.88;;
60917;SDS011;46792;38.854;-9.384;2023-04-16T08:37:09;4.50;;;1.95;;
60917;SDS011;46792;38.854;-9.384;2023-04-16T08:39:10;4.65;;;1.75;;
60917;SDS011;46792;38.854;-9.384;2023-04-16T08:41:11;7.78;;;1.77;;
60917;SDS011;46792;38.854;-9.384;2023-04-16T08:43:12;3.55;;;1.52;;
60917;SDS011;46792;38.854;-9.384;2023-04-16T08:45:18;3.42;;;2.35;;
60917;SDS011;46792;38.854;-9.384;2023-04-16T08:47:19;4.97;;;2.13;;
60917;SDS011;46792;38.854;-9.384;2023-04-16T08:49:24;4.55;;;1.40;;
60917;SDS011;46792;38.854;-9.384;2023-04-16T08:51:44;5.45;;;1.67;;
60917;SDS011;46792;38.854;-9.384;2023-04-16T08:54:10;3.40;;;1.30;;
60917;SDS011;46792;38.854;-9.384;2023-04-16T08:56:34;3.55;;;1.55;;
60917;SDS011;46792;38.854;-9.384;2023-04-16T08:58:35;1.85;;;1.45;;
60917;SDS011;46792;38.854;-9.384;2023-04-16T09:00:56;4.47;;;1.85;;
60917;SDS011;46792;38.854;-9.384;2023-04-16T09:02:57;4.45;;;1.60;;
60917;SDS011;46792;38.854;-9.384;2023-04-16T09:05:17;3.72;;;1.30;;
60917;SDS011;46792;38.854;-9.384;2023-04-16T09:07:18;2.28;;;1.40;;
60917;SDS011;46792;38.854;-9.384;2023-04-16T09:09:21;3.35;;;1.40;;
60917;SDS011;46792;38.854;-9.384;2023-04-16T09:11:22;2.65;;;1.25;;
60917;SDS011;46792;38.854;-9.384;2023-04-16T09:13:23;5.22;;;1.27;;
60917;SDS011;46792;38.854;-9.384;2023-04-16T09:15:24;4.18;;;1.45;;
60917;SDS011;46792;38.854;-9.384;2023-04-16T09:17:25;1.85;;;1.50;;
60917;SDS011;46792;38.854;-9.384;2023-04-16T09:19:26;4.47;;;1.35;;
60917;SDS011;46792;38.854;-9.384;2023-04-16T09:21:46;2.25;;;0.90;;
60917;SDS011;46792;38.854;-9.384;2023-04-16T09:23:47;6.03;;;1.20;;
60917;SDS011;46792;38.854;-9.384;2023-04-16T09:25:47;2.28;;;1.20;;
60917;SDS011;46792;38.854;-9.384;2023-04-16T09:28:06;4.18;;;1.35;;
60917;SDS011;46792;38.854;-9.384;2023-04-16T09:30:18;4.68;;;1.52;;
60917;SDS011;46792;38.854;-9.384;2023-04-16T09:32:25;7.05;;;1.52;;
60917;SDS011;46792;38.854;-9.384;2023-04-16T09:34:27;8.00;;;2.47;;
60917;SDS011;46792;38.854;-9.384;2023-04-16T09:36:28;2.33;;;1.20;;
60917;SDS011;46792;38.854;-9.384;2023-04-16T09:40:51;1.65;;;1.15;;
60917;SDS011;46792;38.854;-9.384;2023-04-16T09:43:13;3.90;;;1.40;;
60917;SDS011;46792;38.854;-9.384;2023-04-16T09:45:15;4.22;;;1.40;;
60917;SDS011;46792;38.854;-9.384;2023-04-16T09:47:16;3.55;;;1.02;;
60917;SDS011;46792;38.854;-9.384;2023-04-16T09:49:16;4.07;;;1.17;;
60917;SDS011;46792;38.854;-9.384;2023-04-16T09:51:20;5.90;;;1.93;;
60917;SDS011;46792;38.854;-9.384;2023-04-16T09:53:24;2.47;;;1.13;;
60917;SDS011;46792;38.854;-9.384;2023-04-16T09:55:28;2.72;;;1.30;;
60917;SDS011;46792;38.854;-9.384;2023-04-16T10:03:07;4.35;;;1.27;;
60917;SDS011;46792;38.854;-9.384;2023-04-16T10:10:47;4.18;;;0.77;;
60917;SDS011;46792;38.854;-9.384;2023-04-16T10:12:47;5.22;;;1.13;;
60917;SDS011;46792;38.854;-9.384;2023-04-16T10:14:48;3.63;;;1.35;;
60917;SDS011;46792;38.854;-9.384;2023-04-16T10:16:49;2.67;;;1.30;;
60917;SDS011;46792;38.854;-9.384;2023-04-16T10:18:50;1.88;;;1.50;;
60917;SDS011;46792;38.854;-9.384;2023-04-16T10:20:52;3.20;;;1.10;;
60917;SDS011;46792;38.854;-9.384;2023-04-16T10:22:53;6.88;;;1.38;;
60917;SDS011;46792;38.854;-9.384;2023-04-16T10:30:35;4.93;;;1.20;;
60917;SDS011;46792;38.854;-9.384;2023-04-16T10:32:36;2.92;;;1.15;;
60917;SDS011;46792;38.854;-9.384;2023-04-16T10:34:56;6.40;;;1.23;;
60917;SDS011;46792;38.854;-9.384;2023-04-16T10:37:15;3.28;;;1.33;;
60917;SDS011;46792;38.854;-9.384;2023-04-16T10:39:19;2.30;;;1.05;;
60917;SDS011;46792;38.854;-9.384;2023-04-16T10:41:21;4.80;;;1.23;;
60917;SDS011;46792;38.854;-9.384;2023-04-16T10:43:21;2.50;;;1.20;;
60917;SDS011;46792;38.854;-9.384;2023-04-16T10:45:25;4.60;;;1.30;;
60917;SDS011;46792;38.854;-9.384;2023-04-16T10:52:17;2.63;;;1.00;;
60917;SDS011;46792;38.854;-9.384;2023-04-16T10:54:18;8.70;;;1.38;;
60917;SDS011;46792;38.854;-9.384;2023-04-16T10:58:51;4.68;;;1.63;;
60917;SDS011;46792;38.854;-9.384;2023-04-16T11:00:54;2.88;;;1.02;;
60917;SDS011;46792;38.854;-9.384;2023-04-16T11:02:55;1.60;;;0.75;;
60917;SDS011;46792;38.854;-9.384;2023-04-16T11:04:55;2.67;;;1.00;;
60917;SDS011;46792;38.854;-9.384;2023-04-16T11:12:41;7.50;;;1.35;;
60917;SDS011;46792;38.854;-9.384;2023-04-16T11:14:52;9.48;;;1.42;;
60917;SDS011;46792;38.854;-9.384;2023-04-16T11:16:54;5.23;;;1.47;;
60917;SDS011;46792;38.854;-9.384;2023-04-16T11:18:55;1.30;;;1.10;;
60917;SDS011;46792;38.854;-9.384;2023-04-16T11:20:56;3.30;;;0.90;;
60917;SDS011;46792;38.854;-9.384;2023-04-16T11:23:15;7.57;;;1.35;;
60917;SDS011;46792;38.854;-9.384;2023-04-16T11:25:34;3.28;;;1.10;;
60917;SDS011;46792;38.854;-9.384;2023-04-16T11:27:54;3.80;;;1.40;;
60917;SDS011;46792;38.854;-9.384;2023-04-16T11:30:04;2.88;;;1.05;;
60917;SDS011;46792;38.854;-9.384;2023-04-16T11:34:46;5.10;;;1.23;;
60917;SDS011;46792;38.854;-9.384;2023-04-16T11:37:05;3.65;;;1.02;;
60917;SDS011;46792;38.854;-9.384;2023-04-16T11:39:06;8.70;;;1.17;;
60917;SDS011;46792;38.854;-9.384;2023-04-16T11:41:06;4.38;;;1.30;;
60917;SDS011;46792;38.854;-9.384;2023-04-16T11:43:14;6.18;;;1.33;;
60917;SDS011;46792;38.854;-9.384;2023-04-16T11:45:15;9.10;;;1.10;;
60917;SDS011;46792;38.854;-9.384;2023-04-16T11:47:18;5.03;;;1.27;;
60917;SDS011;46792;38.854;-9.384;2023-04-16T11:49:34;3.97;;;1.45;;
60917;SDS011;46792;38.854;-9.384;2023-04-16T11:54:19;5.47;;;1.20;;
60917;SDS011;46792;38.854;-9.384;2023-04-16T11:56:27;1.25;;;1.02;;
60917;SDS011;46792;38.854;-9.384;2023-04-16T11:59:09;3.50;;;1.25;;
60917;SDS011;46792;38.854;-9.384;2023-04-16T12:01:28;5.90;;;0.90;;
60917;SDS011;46792;38.854;-9.384;2023-04-16T12:03:38;5.05;;;1.05;;
60917;SDS011;46792;38.854;-9.384;2023-04-16T12:06:06;3.58;;;1.05;;
60917;SDS011;46792;38.854;-9.384;2023-04-16T12:08:32;4.85;;;1.20;;
60917;SDS011;46792;38.854;-9.384;2023-04-16T12:10:34;4.93;;;1.50;;
60917;SDS011;46792;38.854;-9.384;2023-04-16T12:12:53;8.05;;;2.88;;
60917;SDS011;46792;38.854;-9.384;2023-04-16T12:14:53;4.15;;;1.88;;
60917;SDS011;46792;38.854;-9.384;2023-04-16T12:17:25;2.45;;;1.10;;
60917;SDS011;46792;38.854;-9.384;2023-04-16T12:20:17;3.35;;;1.00;;
60917;SDS011;46792;38.854;-9.384;2023-04-16T12:22:34;3.70;;;1.45;;
60917;SDS011;46792;38.854;-9.384;2023-04-16T12:24:36;7.85;;;1.90;;
60917;SDS011;46792;38.854;-9.384;2023-04-16T12:28:45;4.65;;;1.10;;
60917;SDS011;46792;38.854;-9.384;2023-04-16T12:30:49;1.85;;;0.73;;
60917;SDS011;46792;38.854;-9.384;2023-04-16T12:37:31;11.23;;;2.97;;
60917;SDS011;46792;38.854;-9.384;2023-04-16T12:39:50;5.57;;;1.23;;
60917;SDS011;46792;38.854;-9.384;2023-04-16T12:41:51;3.35;;;1.52;;
60917;SDS011;46792;38.854;-9.384;2023-04-16T12:43:54;6.22;;;2.42;;
60917;SDS011;46792;38.854;-9.384;2023-04-16T12:46:06;5.97;;;1.17;;
60917;SDS011;46792;38.854;-9.384;2023-04-16T12:48:06;7.88;;;1.55;;
60917;SDS011;46792;38.854;-9.384;2023-04-16T12:50:07;2.72;;;1.00;;
60917;SDS011;46792;38.854;-9.384;2023-04-16T12:52:26;6.70;;;1.17;;
60917;SDS011;46792;38.854;-9.384;2023-04-16T12:54:46;3.40;;;1.15;;
60917;SDS011;46792;38.854;-9.384;2023-04-16T12:56:47;1.60;;;0.80;;
60917;SDS011;46792;38.854;-9.384;2023-04-16T12:58:47;2.42;;;1.00;;
60917;SDS011;46792;38.854;-9.384;2023-04-16T13:00:50;8.13;;;1.30;;
60917;SDS011;46792;38.854;-9.384;2023-04-16T13:03:09;3.72;;;0.90;;
60917;SDS011;46792;38.854;-9.384;2023-04-16T13:05:10;1.55;;;0.90;;
60917;SDS011;46792;38.854;-9.384;2023-04-16T13:07:12;1.33;;;0.88;;
60917;SDS011;46792;38.854;-9.384;2023-04-16T13:09:13;7.93;;;1.40;;
60917;SDS011;46792;38.854;-9.384;2023-04-16T13:11:13;6.57;;;0.88;;
60917;SDS011;46792;38.854;-9.384;2023-04-16T13:16:11;2.30;;;1.58;;
60917;SDS011;46792;38.854;-9.384;2023-04-16T13:18:11;7.13;;;1.63;;
60917;SDS011;46792;38.854;-9.384;2023-04-16T13:20:12;2.60;;;0.82;;
60917;SDS011;46792;38.854;-9.384;2023-04-16T13:22:15;3.53;;;1.05;;
60917;SDS011;46792;38.854;-9.384;2023-04-16T13:24:16;5.75;;;1.23;;
60917;SDS011;46792;38.854;-9.384;2023-04-16T13:26:16;3.00;;;0.98;;